CZ-0029 weather

Úvn/Central Military Hospital Střešovice -Pavilion Ch 2 Heliport
Prague, Prague (capital city), Czechia

Public forecast

Using degrees Celsius for public forecast. Weather courtesy of forecast.io.

METAR (pilot weather report)

Closest report is Václav Havel Airport Prague, 4.0 nm (7.5 km) W. Retrieved 2019/03/21 03:30 UTC (14 minutes ago):

LKPR 210330Z 22007KT CAVOK 01/M04 Q1034 NOSIG

TAF (pilot weather forecast)

Forecast is more than 12 hours old.

Closest forecast is Václav Havel Airport Prague, 4.0 nm (7.5 km) W. Retrieved 2019/03/19 12:11 UTC (2 days ago):

TAF LKPR 191100Z 1912/2018 28010KT 9999 SCT040 PROB30 TEMPO 1912/1918 32014G24KT 9999 SHRA BKN040 BECMG 1918/1920 24006KT CAVOK